createdAt,value
2022-12-29T00:00:11.470Z,11.04
2022-12-29T00:03:03.992Z,11.15
2022-12-29T00:05:32.209Z,10.99
2022-12-29T00:08:00.408Z,11.25
2022-12-29T00:10:28.389Z,11.28
2022-12-29T00:13:15.210Z,11.17
2022-12-29T00:15:43.061Z,11.02
2022-12-29T00:18:11.360Z,11.23
2022-12-29T00:20:57.947Z,11.02
2022-12-29T00:23:44.656Z,10.78
2022-12-29T00:26:34.725Z,11.07
2022-12-29T00:29:21.245Z,11.00
2022-12-29T00:32:08.456Z,10.89
2022-12-29T00:34:56.195Z,10.61
2022-12-29T00:40:55.639Z,10.68
2022-12-29T00:43:42.195Z,10.63
2022-12-29T00:46:17.619Z,10.33
2022-12-29T00:49:06.730Z,10.41
2022-12-29T00:51:35.356Z,10.54
2022-12-29T00:54:03.269Z,10.04
2022-12-29T00:56:31.606Z,10.01
2022-12-29T00:59:05.143Z,9.97
2022-12-29T01:01:36.084Z,9.97
2022-12-29T01:04:05.382Z,9.71
2022-12-29T01:06:35.099Z,10.16
2022-12-29T01:09:23.005Z,10.33
2022-12-29T01:11:51.820Z,10.31
2022-12-29T01:14:20.638Z,10.42
2022-12-29T01:16:49.299Z,10.49
2022-12-29T01:19:19.736Z,10.67
2022-12-29T01:21:49.020Z,10.74
2022-12-29T01:24:19.852Z,10.78
2022-12-29T01:26:49.713Z,10.73
2022-12-29T01:29:19.044Z,10.63
2022-12-29T01:31:47.873Z,10.70
2022-12-29T01:34:15.829Z,10.82
2022-12-29T01:36:44.485Z,10.68
2022-12-29T01:39:13.470Z,10.94
2022-12-29T01:41:42.852Z,10.61
2022-12-29T01:44:47.830Z,10.76
2022-12-29T01:47:24.120Z,10.94
2022-12-29T01:49:55.780Z,10.68
2022-12-29T01:52:26.196Z,10.80
2022-12-29T01:54:57.821Z,10.84
2022-12-29T01:57:39.836Z,10.90
2022-12-29T02:00:11.438Z,11.08
2022-12-29T02:02:49.201Z,10.72
2022-12-29T02:05:56.389Z,10.93
2022-12-29T02:08:29.365Z,11.15
2022-12-29T02:10:59.833Z,11.00
2022-12-29T02:13:29.529Z,10.85
2022-12-29T02:16:23.143Z,10.95
2022-12-29T02:19:04.655Z,11.05
2022-12-29T02:22:00.120Z,10.92
2022-12-29T02:24:49.288Z,10.88
2022-12-29T02:27:35.941Z,11.01
2022-12-29T02:30:07.568Z,10.74
2022-12-29T02:32:54.738Z,10.78
2022-12-29T02:35:35.241Z,10.83
2022-12-29T02:38:19.757Z,10.95
2022-12-29T02:41:01.978Z,11.04
2022-12-29T02:43:44.589Z,10.82
2022-12-29T02:46:37.965Z,11.15
2022-12-29T02:49:15.268Z,10.91
2022-12-29T02:52:01.693Z,10.97
2022-12-29T02:54:42.556Z,11.14
2022-12-29T02:57:35.367Z,11.11
2022-12-29T03:00:10.067Z,10.99
2022-12-29T03:03:05.506Z,10.83
2022-12-29T03:05:52.549Z,10.86
2022-12-29T03:08:26.646Z,10.93
2022-12-29T03:11:05.200Z,10.73
2022-12-29T03:14:15.038Z,10.84
2022-12-29T03:16:51.794Z,10.97
2022-12-29T03:19:26.331Z,10.89
2022-12-29T03:22:29.381Z,10.88
2022-12-29T03:25:23.951Z,10.54
2022-12-29T03:28:04.469Z,10.63
2022-12-29T03:30:39.302Z,10.55
2022-12-29T03:33:11.994Z,10.60
2022-12-29T03:35:45.406Z,10.70
2022-12-29T03:38:20.898Z,10.57
2022-12-29T03:41:00.480Z,10.83
2022-12-29T03:43:32.406Z,10.80
2022-12-29T03:46:00.834Z,10.69
2022-12-29T03:48:28.843Z,10.71
2022-12-29T03:50:59.754Z,10.76
2022-12-29T03:53:29.008Z,10.75
2022-12-29T03:55:57.188Z,10.78
2022-12-29T03:58:25.205Z,10.80
2022-12-29T04:01:03.029Z,10.66
2022-12-29T04:03:34.722Z,10.34
2022-12-29T04:06:03.246Z,10.49
2022-12-29T04:08:37.709Z,10.54
2022-12-29T04:11:07.420Z,10.58
2022-12-29T04:13:36.888Z,10.57
2022-12-29T04:16:05.608Z,10.64
2022-12-29T04:18:34.470Z,10.54
2022-12-29T04:21:04.105Z,10.60
2022-12-29T04:23:40.491Z,10.68
2022-12-29T04:26:10.735Z,10.61
2022-12-29T04:28:58.892Z,10.80
2022-12-29T04:31:35.981Z,10.68
2022-12-29T04:34:04.352Z,10.59
2022-12-29T04:36:34.666Z,10.65
2022-12-29T04:39:02.923Z,10.81
2022-12-29T04:41:31.219Z,10.84
2022-12-29T04:43:59.199Z,10.88
2022-12-29T04:46:36.281Z,10.82
2022-12-29T04:49:09.956Z,10.83
2022-12-29T04:51:58.332Z,10.89
2022-12-29T04:54:26.663Z,10.86
2022-12-29T04:57:14.444Z,10.90
2022-12-29T04:59:42.760Z,10.79
2022-12-29T05:02:12.361Z,10.78
2022-12-29T05:04:40.730Z,10.54
2022-12-29T05:07:10.684Z,10.70
2022-12-29T05:09:39.119Z,10.88
2022-12-29T05:12:07.926Z,11.01
2022-12-29T05:14:40.310Z,10.87
2022-12-29T05:17:10.841Z,10.78
2022-12-29T05:19:39.418Z,10.70
2022-12-29T05:22:07.989Z,10.48
2022-12-29T05:24:36.460Z,10.43
2022-12-29T05:27:05.916Z,10.52
2022-12-29T05:30:10.250Z,10.45
2022-12-29T05:32:39.166Z,10.36
2022-12-29T05:35:07.520Z,10.52
2022-12-29T05:37:36.214Z,10.43
2022-12-29T05:40:05.189Z,10.50
2022-12-29T05:42:33.752Z,10.40
2022-12-29T05:45:38.343Z,10.48
2022-12-29T05:48:25.840Z,10.38
2022-12-29T05:51:15.649Z,10.43
2022-12-29T05:53:53.000Z,10.38
2022-12-29T05:56:21.071Z,10.30
2022-12-29T05:58:57.040Z,10.25
2022-12-29T06:01:26.006Z,10.05
2022-12-29T06:03:56.331Z,10.15
2022-12-29T06:06:24.429Z,10.26
2022-12-29T06:08:52.951Z,10.22
2022-12-29T06:11:21.844Z,10.19
2022-12-29T06:13:54.615Z,10.41
2022-12-29T06:16:22.568Z,10.32
2022-12-29T06:18:53.319Z,10.28
2022-12-29T06:21:21.635Z,10.60
2022-12-29T06:23:49.590Z,10.46
2022-12-29T06:26:17.906Z,10.62
2022-12-29T06:28:47.641Z,10.56
2022-12-29T06:31:16.877Z,10.33
2022-12-29T06:33:49.517Z,10.31
2022-12-29T06:36:18.735Z,9.97
2022-12-29T06:38:46.917Z,10.00
2022-12-29T06:41:16.866Z,9.99
2022-12-29T06:44:11.566Z,10.22
2022-12-29T06:46:55.177Z,9.93
2022-12-29T06:49:23.123Z,9.84
2022-12-29T06:51:51.254Z,9.97
2022-12-29T06:54:19.136Z,10.03
2022-12-29T06:56:47.416Z,9.92
2022-12-29T06:59:15.155Z,9.66
2022-12-29T07:01:44.574Z,9.98
2022-12-29T07:04:12.698Z,9.94
2022-12-29T07:06:41.958Z,9.79
2022-12-29T07:09:11.594Z,9.93
2022-12-29T07:11:40.960Z,9.83
2022-12-29T07:14:08.954Z,9.80
2022-12-29T07:16:37.180Z,9.72
2022-12-29T07:19:05.775Z,9.91
2022-12-29T07:21:33.910Z,9.98
2022-12-29T07:24:01.805Z,10.16
2022-12-29T07:26:35.893Z,10.41
2022-12-29T07:29:05.770Z,10.48
2022-12-29T07:31:34.039Z,10.40
2022-12-29T07:34:02.914Z,10.55
2022-12-29T07:36:34.583Z,10.57
2022-12-29T07:39:03.726Z,10.64
2022-12-29T07:41:31.975Z,10.62
2022-12-29T07:44:03.165Z,10.59
2022-12-29T07:46:55.361Z,10.86
2022-12-29T07:49:25.802Z,10.80
2022-12-29T07:51:54.490Z,10.75
2022-12-29T07:54:24.197Z,10.85
2022-12-29T07:56:52.772Z,10.60
2022-12-29T07:59:20.908Z,10.77
2022-12-29T08:01:49.168Z,10.78
2022-12-29T08:04:17.187Z,10.29
2022-12-29T08:06:46.951Z,10.27
2022-12-29T08:09:21.694Z,10.41
2022-12-29T08:11:50.911Z,10.71
2022-12-29T08:14:19.433Z,10.68
2022-12-29T08:16:49.017Z,10.64
2022-12-29T08:19:16.924Z,10.61
2022-12-29T08:21:46.409Z,10.61
2022-12-29T08:24:14.405Z,10.60
2022-12-29T08:26:42.622Z,10.80
2022-12-29T08:29:10.591Z,10.69
2022-12-29T08:31:39.159Z,10.72
2022-12-29T08:34:07.093Z,10.63
2022-12-29T08:36:35.366Z,10.89
2022-12-29T08:39:03.297Z,10.91
2022-12-29T08:41:31.864Z,10.88
2022-12-29T08:43:59.705Z,10.98
2022-12-29T08:46:28.298Z,10.71
2022-12-29T08:48:56.369Z,10.67
2022-12-29T08:51:25.307Z,10.83
2022-12-29T08:53:53.743Z,10.81
2022-12-29T08:56:23.537Z,10.76
2022-12-29T08:58:55.562Z,10.75
2022-12-29T09:01:26.408Z,10.77
2022-12-29T09:06:44.752Z,11.00
2022-12-29T09:09:13.543Z,11.08
2022-12-29T09:11:42.997Z,11.01
2022-12-29T09:14:10.933Z,11.14
2022-12-29T09:16:40.035Z,11.26
2022-12-29T09:19:07.985Z,11.14
2022-12-29T09:21:36.162Z,11.21
2022-12-29T09:24:04.174Z,11.23
2022-12-29T09:26:32.396Z,11.25
2022-12-29T09:29:00.266Z,11.24
2022-12-29T09:31:28.604Z,11.17
2022-12-29T09:33:56.495Z,11.48
2022-12-29T09:36:24.645Z,11.49
2022-12-29T09:38:54.969Z,11.34
2022-12-29T09:41:53.258Z,11.47
2022-12-29T09:44:44.172Z,11.56
2022-12-29T09:47:15.834Z,11.71
2022-12-29T09:50:20.927Z,11.79
2022-12-29T09:53:16.854Z,11.65
2022-12-29T09:55:51.155Z,11.63
2022-12-29T09:58:37.577Z,11.51
2022-12-29T10:01:08.803Z,11.62
2022-12-29T10:03:52.353Z,11.71
2022-12-29T10:07:19.443Z,11.74
2022-12-29T10:09:51.407Z,11.63
2022-12-29T10:12:43.834Z,11.82
2022-12-29T10:15:46.412Z,12.36
2022-12-29T10:18:46.555Z,12.72
2022-12-29T10:21:46.505Z,13.42
2022-12-29T10:24:14.630Z,13.54
2022-12-29T10:26:45.149Z,13.93
2022-12-29T10:29:19.185Z,14.04
2022-12-29T10:32:07.364Z,13.89
2022-12-29T10:34:43.845Z,13.72
2022-12-29T10:37:50.600Z,13.34
2022-12-29T10:40:28.741Z,13.68
2022-12-29T10:42:59.137Z,13.24
2022-12-29T10:45:32.285Z,13.31
2022-12-29T10:48:11.350Z,13.22
2022-12-29T10:50:44.249Z,13.21
2022-12-29T10:53:23.173Z,13.41
2022-12-29T10:55:52.495Z,13.29
2022-12-29T10:58:21.288Z,13.30
2022-12-29T11:00:54.810Z,13.31
2022-12-29T11:03:46.232Z,13.13
2022-12-29T11:06:30.560Z,13.10
2022-12-29T11:09:15.173Z,13.08
2022-12-29T11:11:43.690Z,12.66
2022-12-29T11:14:21.791Z,12.90
2022-12-29T11:17:01.116Z,12.95
2022-12-29T11:19:36.086Z,13.17
2022-12-29T11:22:33.362Z,13.30
2022-12-29T11:25:13.893Z,13.36
2022-12-29T11:27:57.429Z,13.27
2022-12-29T11:30:29.454Z,13.02
2022-12-29T11:32:59.578Z,12.74
2022-12-29T11:35:36.563Z,12.52
2022-12-29T11:38:24.832Z,12.65
2022-12-29T11:40:53.444Z,12.15
2022-12-29T11:43:34.812Z,12.06
2022-12-29T11:46:06.428Z,11.82
2022-12-29T11:48:41.863Z,12.17
2022-12-29T11:51:12.983Z,12.29
2022-12-29T11:53:51.319Z,11.99
2022-12-29T11:56:24.048Z,11.74
2022-12-29T11:58:52.207Z,11.50
2022-12-29T12:01:36.001Z,11.67
2022-12-29T12:04:16.714Z,11.72
2022-12-29T12:07:01.811Z,11.85
2022-12-29T12:10:13.129Z,11.64
2022-12-29T12:12:57.606Z,12.09
2022-12-29T12:15:47.458Z,12.21
2022-12-29T12:18:32.780Z,12.26
2022-12-29T12:21:16.061Z,12.34
2022-12-29T12:24:12.227Z,12.36
2022-12-29T12:27:04.021Z,12.36
2022-12-29T12:29:52.618Z,12.30
2022-12-29T12:32:45.780Z,12.12
2022-12-29T12:35:38.650Z,12.18
2022-12-29T12:38:12.510Z,12.02
2022-12-29T12:40:41.201Z,11.89
2022-12-29T12:43:33.193Z,11.57
2022-12-29T12:46:26.595Z,11.53
2022-12-29T12:49:22.261Z,11.21
2022-12-29T12:52:15.690Z,11.27
2022-12-29T12:55:10.723Z,11.36
2022-12-29T12:57:55.090Z,11.73
2022-12-29T13:00:24.761Z,11.85
2022-12-29T13:02:53.023Z,11.92
2022-12-29T13:05:40.057Z,11.84
2022-12-29T13:08:26.690Z,11.65
2022-12-29T13:10:57.787Z,11.53
2022-12-29T13:13:42.851Z,11.43
2022-12-29T13:16:30.425Z,11.17
2022-12-29T13:19:12.170Z,11.03
2022-12-29T13:22:05.730Z,11.28
2022-12-29T13:25:08.807Z,11.33
2022-12-29T13:28:07.042Z,11.47
2022-12-29T13:31:07.272Z,11.59
2022-12-29T13:33:45.272Z,11.60
2022-12-29T13:36:45.434Z,11.45
2022-12-29T13:39:36.999Z,11.52
2022-12-29T13:42:06.560Z,11.42
2022-12-29T13:44:56.292Z,11.44
2022-12-29T13:47:32.356Z,11.19
2022-12-29T13:50:04.767Z,11.62
2022-12-29T13:52:45.440Z,11.92
2022-12-29T13:55:25.484Z,11.76
2022-12-29T13:58:12.184Z,11.84
2022-12-29T14:00:54.811Z,11.85
2022-12-29T14:03:39.248Z,11.82
2022-12-29T14:06:26.303Z,11.60
2022-12-29T14:09:03.987Z,11.88
2022-12-29T14:11:37.657Z,11.94
2022-12-29T14:14:33.351Z,11.72
2022-12-29T14:17:15.168Z,11.76
2022-12-29T14:19:45.682Z,12.01
2022-12-29T14:22:14.130Z,12.20
2022-12-29T14:24:47.609Z,11.95
2022-12-29T14:27:15.532Z,12.18
2022-12-29T14:29:51.170Z,12.07
2022-12-29T14:32:28.062Z,12.00
2022-12-29T14:34:59.466Z,11.95
2022-12-29T14:37:37.294Z,12.08
2022-12-29T14:40:28.937Z,12.07
2022-12-29T14:42:58.853Z,12.14
2022-12-29T14:45:34.524Z,12.12
2022-12-29T14:48:02.495Z,11.97
2022-12-29T14:50:51.099Z,11.95
2022-12-29T14:53:55.569Z,11.67
2022-12-29T14:56:28.641Z,11.78
2022-12-29T14:59:02.743Z,11.97
2022-12-29T15:01:31.095Z,11.80
2022-12-29T15:04:06.061Z,11.86
2022-12-29T15:06:38.242Z,12.05
2022-12-29T15:09:21.680Z,12.01
2022-12-29T15:12:28.343Z,11.99
2022-12-29T15:14:59.420Z,12.05
2022-12-29T15:17:27.696Z,12.03
2022-12-29T15:19:58.570Z,12.08
2022-12-29T15:22:29.029Z,12.07
2022-12-29T15:24:58.129Z,12.10
2022-12-29T15:27:27.942Z,11.92
2022-12-29T15:30:04.656Z,11.80
2022-12-29T15:32:45.078Z,11.79
2022-12-29T15:35:39.650Z,11.73
2022-12-29T15:38:31.106Z,11.71
2022-12-29T15:41:07.018Z,11.89
2022-12-29T15:44:05.444Z,11.87
2022-12-29T15:46:33.780Z,11.87
2022-12-29T15:49:08.825Z,11.79
2022-12-29T15:51:40.861Z,11.89
2022-12-29T15:54:22.530Z,11.95
2022-12-29T15:56:51.177Z,11.92
2022-12-29T15:59:27.174Z,11.87
2022-12-29T16:02:00.529Z,12.03
2022-12-29T16:04:48.564Z,11.92
2022-12-29T16:07:35.799Z,11.98
2022-12-29T16:10:34.689Z,11.87
2022-12-29T16:13:41.415Z,11.98
2022-12-29T16:16:19.614Z,11.90
2022-12-29T16:18:53.412Z,11.87
2022-12-29T16:21:29.453Z,11.76
2022-12-29T16:24:14.746Z,11.90
2022-12-29T16:26:52.627Z,11.90
2022-12-29T16:29:23.055Z,11.89
2022-12-29T16:32:02.078Z,11.90
2022-12-29T16:34:40.369Z,11.85
2022-12-29T16:37:31.447Z,11.70
2022-12-29T16:40:33.900Z,11.60
2022-12-29T16:43:06.047Z,11.78
2022-12-29T16:45:46.990Z,11.61
2022-12-29T16:48:53.823Z,11.80
2022-12-29T16:51:41.761Z,11.88
2022-12-29T16:54:25.522Z,11.70
2022-12-29T16:56:55.489Z,11.88
2022-12-29T16:59:43.437Z,11.86
2022-12-29T17:02:17.720Z,11.89
2022-12-29T17:04:49.718Z,11.85
2022-12-29T17:07:21.478Z,11.75
2022-12-29T17:09:51.328Z,11.81
2022-12-29T17:12:24.171Z,11.78
2022-12-29T17:14:56.579Z,11.70
2022-12-29T17:17:36.437Z,11.56
2022-12-29T17:20:17.085Z,11.46
2022-12-29T17:22:45.873Z,11.39
2022-12-29T17:25:17.060Z,11.49
2022-12-29T17:28:00.064Z,11.55
2022-12-29T17:30:33.855Z,11.64
2022-12-29T17:33:15.886Z,11.64
2022-12-29T17:35:44.100Z,11.55
2022-12-29T17:38:19.235Z,11.63
2022-12-29T17:40:48.414Z,11.68
2022-12-29T17:43:17.020Z,11.58
2022-12-29T17:45:49.836Z,11.55
2022-12-29T17:48:18.892Z,11.53
2022-12-29T17:50:50.086Z,11.69
2022-12-29T17:53:25.232Z,11.53
2022-12-29T17:55:54.645Z,11.64
2022-12-29T17:58:47.147Z,11.69
2022-12-29T18:01:15.986Z,11.52
2022-12-29T18:03:44.204Z,11.43
2022-12-29T18:06:12.966Z,11.46
2022-12-29T18:08:42.254Z,11.43
2022-12-29T18:11:25.074Z,11.44
2022-12-29T18:13:54.558Z,11.35
2022-12-29T18:16:23.915Z,11.45
2022-12-29T18:18:52.103Z,11.42
2022-12-29T18:21:23.343Z,11.38
2022-12-29T18:23:51.719Z,11.58
2022-12-29T18:26:28.123Z,11.51
2022-12-29T18:29:00.189Z,11.31
2022-12-29T18:31:34.010Z,11.27
2022-12-29T18:34:07.649Z,11.31
2022-12-29T18:36:37.152Z,10.99
2022-12-29T18:39:05.215Z,11.04
2022-12-29T18:41:34.719Z,10.98
2022-12-29T18:44:02.960Z,11.14
2022-12-29T18:46:31.298Z,11.25
2022-12-29T18:48:59.400Z,11.30
2022-12-29T18:51:28.378Z,11.32
2022-12-29T18:53:56.374Z,11.36
2022-12-29T18:56:24.717Z,11.11
2022-12-29T18:58:53.872Z,11.16
2022-12-29T19:01:31.238Z,10.95
2022-12-29T19:03:59.362Z,11.27
2022-12-29T19:06:28.791Z,11.24
2022-12-29T19:08:56.749Z,11.44
2022-12-29T19:11:26.321Z,11.52
2022-12-29T19:13:54.410Z,11.54
2022-12-29T19:16:25.400Z,11.54
2022-12-29T19:19:09.407Z,11.43
2022-12-29T19:21:38.430Z,11.23
2022-12-29T19:24:06.821Z,11.30
2022-12-29T19:26:37.613Z,11.39
2022-12-29T19:29:16.170Z,11.43
2022-12-29T19:31:45.032Z,11.45
2022-12-29T19:34:17.539Z,10.96
2022-12-29T19:36:46.274Z,11.09
2022-12-29T19:39:14.239Z,11.00
2022-12-29T19:41:42.816Z,11.04
2022-12-29T19:44:10.743Z,11.10
2022-12-29T19:46:39.236Z,10.90
2022-12-29T19:49:07.257Z,10.85
2022-12-29T19:51:35.542Z,10.75
2022-12-29T19:54:03.592Z,10.45
2022-12-29T19:56:32.984Z,10.36
2022-12-29T19:59:00.907Z,10.30
2022-12-29T20:01:30.278Z,10.60
2022-12-29T20:03:58.371Z,10.83
2022-12-29T20:06:27.963Z,10.69
2022-12-29T20:08:55.884Z,10.74
2022-12-29T20:11:24.542Z,10.82
2022-12-29T20:13:52.593Z,10.89
2022-12-29T20:16:21.954Z,11.11
2022-12-29T20:18:50.026Z,11.18
2022-12-29T20:21:21.399Z,11.19
2022-12-29T20:23:51.278Z,11.15
2022-12-29T20:26:26.754Z,10.97
2022-12-29T20:28:57.340Z,11.06
2022-12-29T20:31:32.134Z,11.08
2022-12-29T20:34:01.116Z,11.29
2022-12-29T20:36:32.984Z,11.45
2022-12-29T20:39:06.089Z,11.22
2022-12-29T20:41:35.969Z,11.25
2022-12-29T20:44:05.604Z,11.08
2022-12-29T20:46:41.252Z,11.24
2022-12-29T20:49:11.996Z,11.21
2022-12-29T20:54:37.068Z,11.08
2022-12-29T20:57:08.314Z,11.27
2022-12-29T20:59:37.100Z,11.34
2022-12-29T21:02:06.689Z,11.03
2022-12-29T21:05:05.045Z,11.00
2022-12-29T21:07:23.146Z,11.06
2022-12-29T21:09:51.020Z,11.21
2022-12-29T21:12:19.295Z,11.22
2022-12-29T21:14:47.262Z,11.28
2022-12-29T21:17:15.751Z,11.21
2022-12-29T21:19:43.649Z,10.96
2022-12-29T21:22:12.196Z,11.05
2022-12-29T21:24:40.194Z,11.02
2022-12-29T21:27:08.491Z,11.02
2022-12-29T21:29:36.491Z,10.92
2022-12-29T21:32:06.637Z,10.91
2022-12-29T21:34:36.608Z,10.98
2022-12-29T21:37:04.858Z,11.05
2022-12-29T21:39:32.802Z,10.82
2022-12-29T21:42:02.844Z,10.86
2022-12-29T21:44:49.326Z,10.95
2022-12-29T21:47:17.635Z,10.81
2022-12-29T21:49:45.596Z,10.61
2022-12-29T21:52:13.818Z,10.68
2022-12-29T21:55:00.466Z,10.84
2022-12-29T21:57:47.381Z,10.93
2022-12-29T22:00:34.705Z,11.02
2022-12-29T22:03:23.826Z,10.94
2022-12-29T22:06:11.241Z,11.00
2022-12-29T22:08:58.884Z,10.96
2022-12-29T22:11:45.617Z,10.82
2022-12-29T22:14:14.148Z,10.87
2022-12-29T22:16:42.201Z,10.70
2022-12-29T22:19:11.308Z,10.79
2022-12-29T22:21:39.280Z,10.59
2022-12-29T22:24:09.137Z,10.83
2022-12-29T22:26:37.177Z,10.58
2022-12-29T22:29:05.452Z,10.70
2022-12-29T22:31:34.098Z,10.68
2022-12-29T22:34:04.867Z,10.75
2022-12-29T22:36:33.747Z,10.69
2022-12-29T22:39:02.200Z,10.83
2022-12-29T22:41:30.356Z,10.73
2022-12-29T22:43:58.790Z,10.80
2022-12-29T22:46:27.074Z,10.74
2022-12-29T22:48:57.799Z,10.93
2022-12-29T22:51:26.542Z,10.94
2022-12-29T22:53:54.949Z,10.68
2022-12-29T22:56:23.111Z,10.71
2022-12-29T22:58:51.607Z,10.69
2022-12-29T23:01:22.898Z,10.72
2022-12-29T23:03:52.360Z,10.77
2022-12-29T23:06:20.547Z,10.85
2022-12-29T23:08:49.364Z,10.89
2022-12-29T23:11:17.771Z,10.90
2022-12-29T23:13:46.347Z,10.96
2022-12-29T23:16:16.473Z,11.03
2022-12-29T23:18:46.933Z,11.01
2022-12-29T23:21:19.484Z,10.80
2022-12-29T23:23:54.249Z,10.90
2022-12-29T23:26:32.601Z,10.76
2022-12-29T23:29:04.526Z,10.68
2022-12-29T23:31:32.887Z,10.72
2022-12-29T23:34:04.379Z,10.71
2022-12-29T23:36:33.227Z,10.86
2022-12-29T23:39:03.835Z,10.82
2022-12-29T23:41:31.819Z,10.90
2022-12-29T23:44:01.501Z,10.71
2022-12-29T23:46:31.451Z,10.57
2022-12-29T23:48:59.939Z,10.65
2022-12-29T23:51:28.687Z,10.64
2022-12-29T23:53:57.082Z,10.76
2022-12-29T23:56:25.197Z,10.68
2022-12-29T23:58:53.516Z,10.84
